sensor_id;sensor_type;location;lat;lon;timestamp;temperature;humidity
2945;DHT22;1482;51.398;7.128;2022-09-09T00:00:41;15.80;99.90
2945;DHT22;1482;51.398;7.128;2022-09-09T00:03:22;15.70;99.90
2945;DHT22;1482;51.398;7.128;2022-09-09T00:08:45;15.70;1.00
2945;DHT22;1482;51.398;7.128;2022-09-09T00:11:24;15.70;1.00
2945;DHT22;1482;51.398;7.128;2022-09-09T00:13:52;15.70;1.00
2945;DHT22;1482;51.398;7.128;2022-09-09T00:16:25;15.70;1.00
2945;DHT22;1482;51.398;7.128;2022-09-09T00:19:00;15.80;1.00
2945;DHT22;1482;51.398;7.128;2022-09-09T00:21:36;15.80;1.00
2945;DHT22;1482;51.398;7.128;2022-09-09T00:24:11;15.70;1.00
2945;DHT22;1482;51.398;7.128;2022-09-09T00:26:44;15.70;1.00
2945;DHT22;1482;51.398;7.128;2022-09-09T00:31:47;15.70;1.00
2945;DHT22;1482;51.398;7.128;2022-09-09T00:34:23;15.70;1.00
2945;DHT22;1482;51.398;7.128;2022-09-09T00:36:52;15.70;1.00
2945;DHT22;1482;51.398;7.128;2022-09-09T00:44:36;15.70;1.00
2945;DHT22;1482;51.398;7.128;2022-09-09T00:57:50;15.60;1.00
2945;DHT22;1482;51.398;7.128;2022-09-09T01:00:22;15.60;15.20
2945;DHT22;1482;51.398;7.128;2022-09-09T01:05:49;15.60;99.90
2945;DHT22;1482;51.398;7.128;2022-09-09T01:08:56;15.60;99.90
2945;DHT22;1482;51.398;7.128;2022-09-09T01:11:34;15.60;99.90
2945;DHT22;1482;51.398;7.128;2022-09-09T01:14:19;15.70;99.90
2945;DHT22;1482;51.398;7.128;2022-09-09T01:16:50;15.60;99.90
2945;DHT22;1482;51.398;7.128;2022-09-09T01:19:24;15.60;99.90
2945;DHT22;1482;51.398;7.128;2022-09-09T01:22:11;15.60;99.90
2945;DHT22;1482;51.398;7.128;2022-09-09T01:27:40;15.60;99.90
2945;DHT22;1482;51.398;7.128;2022-09-09T01:30:11;15.60;99.90
2945;DHT22;1482;51.398;7.128;2022-09-09T01:32:43;15.70;99.90
2945;DHT22;1482;51.398;7.128;2022-09-09T01:37:44;15.70;1.00
2945;DHT22;1482;51.398;7.128;2022-09-09T01:40:09;15.80;93.20
2945;DHT22;1482;51.398;7.128;2022-09-09T01:42:35;15.90;22.30
2945;DHT22;1482;51.398;7.128;2022-09-09T01:45:01;15.90;1.00
2945;DHT22;1482;51.398;7.128;2022-09-09T01:47:27;16.00;1.00
2945;DHT22;1482;51.398;7.128;2022-09-09T01:49:52;16.00;1.00
2945;DHT22;1482;51.398;7.128;2022-09-09T01:52:18;16.00;1.00
2945;DHT22;1482;51.398;7.128;2022-09-09T01:54:43;15.90;1.00
2945;DHT22;1482;51.398;7.128;2022-09-09T02:00:09;16.00;99.90
2945;DHT22;1482;51.398;7.128;2022-09-09T02:03:00;16.00;99.90
2945;DHT22;1482;51.398;7.128;2022-09-09T02:08:10;16.00;99.90
2945;DHT22;1482;51.398;7.128;2022-09-09T02:10:58;16.00;1.00
2945;DHT22;1482;51.398;7.128;2022-09-09T02:13:25;16.00;1.00
2945;DHT22;1482;51.398;7.128;2022-09-09T02:16:08;16.10;99.90
2945;DHT22;1482;51.398;7.128;2022-09-09T02:18:49;16.00;99.90
2945;DHT22;1482;51.398;7.128;2022-09-09T02:21:17;16.00;99.90
2945;DHT22;1482;51.398;7.128;2022-09-09T02:23:43;15.90;99.90
2945;DHT22;1482;51.398;7.128;2022-09-09T02:26:13;15.90;99.90
2945;DHT22;1482;51.398;7.128;2022-09-09T02:28:46;16.00;99.90
2945;DHT22;1482;51.398;7.128;2022-09-09T02:31:13;16.00;99.90
2945;DHT22;1482;51.398;7.128;2022-09-09T02:33:42;16.00;99.90
2945;DHT22;1482;51.398;7.128;2022-09-09T02:36:11;15.90;1.00
2945;DHT22;1482;51.398;7.128;2022-09-09T02:38:44;16.00;1.00
2945;DHT22;1482;51.398;7.128;2022-09-09T02:41:11;16.00;99.90
2945;DHT22;1482;51.398;7.128;2022-09-09T02:43:36;16.00;99.90
2945;DHT22;1482;51.398;7.128;2022-09-09T02:46:36;16.00;99.90
2945;DHT22;1482;51.398;7.128;2022-09-09T02:49:11;16.00;99.90
2945;DHT22;1482;51.398;7.128;2022-09-09T02:52:04;16.00;1.00
2945;DHT22;1482;51.398;7.128;2022-09-09T02:54:35;16.00;1.00
2945;DHT22;1482;51.398;7.128;2022-09-09T02:57:16;16.00;1.00
2945;DHT22;1482;51.398;7.128;2022-09-09T02:59:43;16.00;1.00
2945;DHT22;1482;51.398;7.128;2022-09-09T03:02:10;16.00;99.90
2945;DHT22;1482;51.398;7.128;2022-09-09T03:04:37;15.90;99.90
2945;DHT22;1482;51.398;7.128;2022-09-09T03:07:02;15.90;1.00
2945;DHT22;1482;51.398;7.128;2022-09-09T03:09:29;15.90;1.00
2945;DHT22;1482;51.398;7.128;2022-09-09T03:11:55;15.90;1.00
2945;DHT22;1482;51.398;7.128;2022-09-09T03:14:21;15.90;99.90
2945;DHT22;1482;51.398;7.128;2022-09-09T03:16:50;15.90;99.90
2945;DHT22;1482;51.398;7.128;2022-09-09T03:19:15;15.90;99.90
2945;DHT22;1482;51.398;7.128;2022-09-09T03:21:41;15.90;99.90
2945;DHT22;1482;51.398;7.128;2022-09-09T03:24:07;15.90;99.90
2945;DHT22;1482;51.398;7.128;2022-09-09T03:26:32;15.80;99.90
2945;DHT22;1482;51.398;7.128;2022-09-09T03:28:58;15.80;99.90
2945;DHT22;1482;51.398;7.128;2022-09-09T03:31:26;15.80;99.90
2945;DHT22;1482;51.398;7.128;2022-09-09T03:33:56;15.80;99.90
2945;DHT22;1482;51.398;7.128;2022-09-09T03:36:23;15.80;99.90
2945;DHT22;1482;51.398;7.128;2022-09-09T03:38:49;15.80;99.90
2945;DHT22;1482;51.398;7.128;2022-09-09T03:41:15;15.80;99.90
2945;DHT22;1482;51.398;7.128;2022-09-09T03:43:41;15.80;41.30
2945;DHT22;1482;51.398;7.128;2022-09-09T03:46:07;15.70;99.90
2945;DHT22;1482;51.398;7.128;2022-09-09T03:48:32;15.70;99.90
2945;DHT22;1482;51.398;7.128;2022-09-09T03:50:58;15.70;99.90
2945;DHT22;1482;51.398;7.128;2022-09-09T03:53:27;15.80;99.90
2945;DHT22;1482;51.398;7.128;2022-09-09T03:55:55;15.80;99.90
2945;DHT22;1482;51.398;7.128;2022-09-09T03:58:22;15.80;99.90
2945;DHT22;1482;51.398;7.128;2022-09-09T04:01:01;15.80;99.90
2945;DHT22;1482;51.398;7.128;2022-09-09T04:03:27;15.80;99.90
2945;DHT22;1482;51.398;7.128;2022-09-09T04:05:54;15.90;99.90
2945;DHT22;1482;51.398;7.128;2022-09-09T04:08:20;15.90;99.90
2945;DHT22;1482;51.398;7.128;2022-09-09T04:10:49;15.90;99.90
2945;DHT22;1482;51.398;7.128;2022-09-09T04:13:16;16.00;99.90
2945;DHT22;1482;51.398;7.128;2022-09-09T04:15:44;16.00;10.20
2945;DHT22;1482;51.398;7.128;2022-09-09T04:18:11;16.00;99.90
2945;DHT22;1482;51.398;7.128;2022-09-09T04:20:38;15.90;44.60
2945;DHT22;1482;51.398;7.128;2022-09-09T04:23:04;15.80;19.80
2945;DHT22;1482;51.398;7.128;2022-09-09T04:25:30;15.90;99.90
2945;DHT22;1482;51.398;7.128;2022-09-09T04:27:57;15.90;20.60
2945;DHT22;1482;51.398;7.128;2022-09-09T04:30:23;15.80;1.00
2945;DHT22;1482;51.398;7.128;2022-09-09T04:32:49;15.80;99.90
2945;DHT22;1482;51.398;7.128;2022-09-09T04:35:15;15.80;34.20
2945;DHT22;1482;51.398;7.128;2022-09-09T04:37:41;15.90;1.00
2945;DHT22;1482;51.398;7.128;2022-09-09T04:40:07;15.80;1.00
2945;DHT22;1482;51.398;7.128;2022-09-09T04:42:38;15.80;31.10
2945;DHT22;1482;51.398;7.128;2022-09-09T04:45:05;15.80;66.50
2945;DHT22;1482;51.398;7.128;2022-09-09T04:47:32;15.80;86.60
2945;DHT22;1482;51.398;7.128;2022-09-09T04:49:58;15.80;93.30
2945;DHT22;1482;51.398;7.128;2022-09-09T04:52:23;15.70;99.90
2945;DHT22;1482;51.398;7.128;2022-09-09T04:54:49;15.70;99.90
2945;DHT22;1482;51.398;7.128;2022-09-09T04:57:14;15.70;99.90
2945;DHT22;1482;51.398;7.128;2022-09-09T04:59:40;15.70;99.90
2945;DHT22;1482;51.398;7.128;2022-09-09T05:02:06;15.80;99.90
2945;DHT22;1482;51.398;7.128;2022-09-09T05:04:31;15.80;99.90
2945;DHT22;1482;51.398;7.128;2022-09-09T05:06:58;15.80;99.90
2945;DHT22;1482;51.398;7.128;2022-09-09T05:09:24;15.90;99.90
2945;DHT22;1482;51.398;7.128;2022-09-09T05:11:49;16.00;99.90
2945;DHT22;1482;51.398;7.128;2022-09-09T05:14:15;16.00;1.00
2945;DHT22;1482;51.398;7.128;2022-09-09T05:16:41;16.00;1.00
2945;DHT22;1482;51.398;7.128;2022-09-09T05:19:09;16.00;1.00
2945;DHT22;1482;51.398;7.128;2022-09-09T05:21:34;16.10;1.00
2945;DHT22;1482;51.398;7.128;2022-09-09T05:24:00;16.00;1.00
2945;DHT22;1482;51.398;7.128;2022-09-09T05:26:26;16.10;1.00
2945;DHT22;1482;51.398;7.128;2022-09-09T05:28:52;16.10;1.00
2945;DHT22;1482;51.398;7.128;2022-09-09T05:31:18;16.10;1.00
2945;DHT22;1482;51.398;7.128;2022-09-09T05:33:46;16.10;1.00
2945;DHT22;1482;51.398;7.128;2022-09-09T05:36:17;16.20;1.00
2945;DHT22;1482;51.398;7.128;2022-09-09T05:38:44;16.20;1.00
2945;DHT22;1482;51.398;7.128;2022-09-09T05:41:10;16.20;1.00
2945;DHT22;1482;51.398;7.128;2022-09-09T05:43:37;16.20;1.00
2945;DHT22;1482;51.398;7.128;2022-09-09T05:46:07;16.10;1.00
2945;DHT22;1482;51.398;7.128;2022-09-09T05:48:40;16.20;1.00
2945;DHT22;1482;51.398;7.128;2022-09-09T05:51:11;16.20;1.00
2945;DHT22;1482;51.398;7.128;2022-09-09T05:53:38;16.30;1.00
2945;DHT22;1482;51.398;7.128;2022-09-09T05:56:06;16.30;1.00
2945;DHT22;1482;51.398;7.128;2022-09-09T05:58:33;16.30;1.00
2945;DHT22;1482;51.398;7.128;2022-09-09T06:01:07;16.40;99.90
2945;DHT22;1482;51.398;7.128;2022-09-09T06:03:34;16.40;99.90
2945;DHT22;1482;51.398;7.128;2022-09-09T06:06:02;16.50;99.90
2945;DHT22;1482;51.398;7.128;2022-09-09T06:08:31;16.50;99.90
2945;DHT22;1482;51.398;7.128;2022-09-09T06:11:04;16.60;99.90
2945;DHT22;1482;51.398;7.128;2022-09-09T06:13:31;16.70;99.90
2945;DHT22;1482;51.398;7.128;2022-09-09T06:15:57;16.70;99.90
2945;DHT22;1482;51.398;7.128;2022-09-09T06:18:23;16.70;99.90
2945;DHT22;1482;51.398;7.128;2022-09-09T06:20:59;16.80;99.90
2945;DHT22;1482;51.398;7.128;2022-09-09T06:23:26;16.80;99.90
2945;DHT22;1482;51.398;7.128;2022-09-09T06:28:31;16.90;99.90
2945;DHT22;1482;51.398;7.128;2022-09-09T06:31:01;17.10;99.90
2945;DHT22;1482;51.398;7.128;2022-09-09T06:33:30;17.20;99.90
2945;DHT22;1482;51.398;7.128;2022-09-09T06:35:55;17.40;99.90
2945;DHT22;1482;51.398;7.128;2022-09-09T06:38:22;17.50;99.90
2945;DHT22;1482;51.398;7.128;2022-09-09T06:40:55;17.50;99.90
2945;DHT22;1482;51.398;7.128;2022-09-09T06:43:22;17.60;64.80
2945;DHT22;1482;51.398;7.128;2022-09-09T06:45:55;17.80;30.80
2945;DHT22;1482;51.398;7.128;2022-09-09T06:48:21;17.80;22.90
2945;DHT22;1482;51.398;7.128;2022-09-09T06:50:47;17.80;13.20
2945;DHT22;1482;51.398;7.128;2022-09-09T06:53:16;17.80;17.50
2945;DHT22;1482;51.398;7.128;2022-09-09T06:55:44;17.80;29.00
2945;DHT22;1482;51.398;7.128;2022-09-09T06:58:10;18.20;21.90
2945;DHT22;1482;51.398;7.128;2022-09-09T07:00:36;19.10;1.00
2945;DHT22;1482;51.398;7.128;2022-09-09T07:03:04;21.30;1.00
2945;DHT22;1482;51.398;7.128;2022-09-09T07:05:31;25.00;1.00
2945;DHT22;1482;51.398;7.128;2022-09-09T07:07:56;26.20;1.00
2945;DHT22;1482;51.398;7.128;2022-09-09T07:10:22;27.80;1.00
2945;DHT22;1482;51.398;7.128;2022-09-09T07:12:51;27.70;1.00
2945;DHT22;1482;51.398;7.128;2022-09-09T07:15:18;26.20;1.00
2945;DHT22;1482;51.398;7.128;2022-09-09T07:17:44;25.50;1.00
2945;DHT22;1482;51.398;7.128;2022-09-09T07:20:10;25.20;1.00
2945;DHT22;1482;51.398;7.128;2022-09-09T07:22:36;25.50;1.00
2945;DHT22;1482;51.398;7.128;2022-09-09T07:25:02;27.20;1.00
2945;DHT22;1482;51.398;7.128;2022-09-09T07:27:28;29.50;1.00
2945;DHT22;1482;51.398;7.128;2022-09-09T07:29:53;29.90;1.00
2945;DHT22;1482;51.398;7.128;2022-09-09T07:32:19;29.90;1.00
2945;DHT22;1482;51.398;7.128;2022-09-09T07:34:45;29.80;1.00
2945;DHT22;1482;51.398;7.128;2022-09-09T07:37:12;29.80;1.00
2945;DHT22;1482;51.398;7.128;2022-09-09T07:39:39;30.30;1.00
2945;DHT22;1482;51.398;7.128;2022-09-09T07:42:05;31.30;1.00
2945;DHT22;1482;51.398;7.128;2022-09-09T07:44:30;30.40;1.00
2945;DHT22;1482;51.398;7.128;2022-09-09T07:46:57;31.80;1.00
2945;DHT22;1482;51.398;7.128;2022-09-09T07:49:23;31.80;1.00
2945;DHT22;1482;51.398;7.128;2022-09-09T07:51:49;32.00;1.00
2945;DHT22;1482;51.398;7.128;2022-09-09T07:54:17;31.40;1.00
2945;DHT22;1482;51.398;7.128;2022-09-09T07:56:46;30.20;1.00
2945;DHT22;1482;51.398;7.128;2022-09-09T07:59:12;30.10;1.00
2945;DHT22;1482;51.398;7.128;2022-09-09T08:01:43;30.10;1.00
2945;DHT22;1482;51.398;7.128;2022-09-09T08:04:11;29.50;1.00
2945;DHT22;1482;51.398;7.128;2022-09-09T08:06:46;27.90;1.00
2945;DHT22;1482;51.398;7.128;2022-09-09T08:09:12;26.30;1.00
2945;DHT22;1482;51.398;7.128;2022-09-09T08:11:40;25.70;1.00
2945;DHT22;1482;51.398;7.128;2022-09-09T08:14:07;25.40;1.00
2945;DHT22;1482;51.398;7.128;2022-09-09T08:16:35;25.40;1.00
2945;DHT22;1482;51.398;7.128;2022-09-09T08:19:02;27.50;1.00
2945;DHT22;1482;51.398;7.128;2022-09-09T08:21:30;29.30;1.00
2945;DHT22;1482;51.398;7.128;2022-09-09T08:23:59;29.40;1.00
2945;DHT22;1482;51.398;7.128;2022-09-09T08:26:30;29.40;1.00
2945;DHT22;1482;51.398;7.128;2022-09-09T08:28:58;27.90;1.00
2945;DHT22;1482;51.398;7.128;2022-09-09T08:31:29;27.10;1.00
2945;DHT22;1482;51.398;7.128;2022-09-09T08:33:56;26.20;1.00
2945;DHT22;1482;51.398;7.128;2022-09-09T08:36:24;26.40;1.00
2945;DHT22;1482;51.398;7.128;2022-09-09T08:38:53;26.40;1.00
2945;DHT22;1482;51.398;7.128;2022-09-09T08:41:46;26.50;1.00
2945;DHT22;1482;51.398;7.128;2022-09-09T08:49:53;25.90;1.00
2945;DHT22;1482;51.398;7.128;2022-09-09T08:52:28;25.70;1.00
2945;DHT22;1482;51.398;7.128;2022-09-09T08:55:02;24.80;1.00
2945;DHT22;1482;51.398;7.128;2022-09-09T08:57:30;24.90;1.00
2945;DHT22;1482;51.398;7.128;2022-09-09T08:59:58;24.10;1.00
2945;DHT22;1482;51.398;7.128;2022-09-09T09:08:06;22.60;1.00
2945;DHT22;1482;51.398;7.128;2022-09-09T09:10:45;22.30;1.00
2945;DHT22;1482;51.398;7.128;2022-09-09T09:16:00;21.40;1.00
2945;DHT22;1482;51.398;7.128;2022-09-09T09:18:26;21.10;1.00
2945;DHT22;1482;51.398;7.128;2022-09-09T09:21:02;21.10;1.00
2945;DHT22;1482;51.398;7.128;2022-09-09T09:23:39;21.60;1.00
2945;DHT22;1482;51.398;7.128;2022-09-09T09:26:09;22.10;1.00
2945;DHT22;1482;51.398;7.128;2022-09-09T09:28:36;22.80;1.00
2945;DHT22;1482;51.398;7.128;2022-09-09T09:31:07;22.90;1.00
2945;DHT22;1482;51.398;7.128;2022-09-09T09:33:47;23.10;1.00
2945;DHT22;1482;51.398;7.128;2022-09-09T09:36:13;23.50;1.00
2945;DHT22;1482;51.398;7.128;2022-09-09T09:38:55;23.80;1.00
2945;DHT22;1482;51.398;7.128;2022-09-09T09:41:41;24.20;1.00
2945;DHT22;1482;51.398;7.128;2022-09-09T09:44:29;23.90;1.00
2945;DHT22;1482;51.398;7.128;2022-09-09T09:47:13;23.30;1.00
2945;DHT22;1482;51.398;7.128;2022-09-09T09:49:54;23.10;1.00
2945;DHT22;1482;51.398;7.128;2022-09-09T09:52:26;23.00;1.00
2945;DHT22;1482;51.398;7.128;2022-09-09T09:54:52;22.90;1.00
2945;DHT22;1482;51.398;7.128;2022-09-09T09:57:26;22.80;1.00
2945;DHT22;1482;51.398;7.128;2022-09-09T10:00:21;22.80;1.00
2945;DHT22;1482;51.398;7.128;2022-09-09T10:02:48;22.80;1.00
2945;DHT22;1482;51.398;7.128;2022-09-09T10:05:28;22.50;1.00
2945;DHT22;1482;51.398;7.128;2022-09-09T10:08:24;22.20;1.00
2945;DHT22;1482;51.398;7.128;2022-09-09T10:10:58;21.90;1.00
2945;DHT22;1482;51.398;7.128;2022-09-09T10:13:45;21.60;1.00
2945;DHT22;1482;51.398;7.128;2022-09-09T10:19:04;21.40;1.00
2945;DHT22;1482;51.398;7.128;2022-09-09T10:33:30;23.50;1.00
2945;DHT22;1482;51.398;7.128;2022-09-09T10:36:13;23.40;1.00
2945;DHT22;1482;51.398;7.128;2022-09-09T10:38:39;23.30;1.00
2945;DHT22;1482;51.398;7.128;2022-09-09T10:41:42;23.00;1.00
2945;DHT22;1482;51.398;7.128;2022-09-09T10:44:20;23.10;1.00
2945;DHT22;1482;51.398;7.128;2022-09-09T10:46:52;23.10;1.00
2945;DHT22;1482;51.398;7.128;2022-09-09T10:52:09;23.00;1.00
2945;DHT22;1482;51.398;7.128;2022-09-09T10:57:33;23.00;1.00
2945;DHT22;1482;51.398;7.128;2022-09-09T11:00:06;22.80;1.00
2945;DHT22;1482;51.398;7.128;2022-09-09T11:02:34;22.80;1.00
2945;DHT22;1482;51.398;7.128;2022-09-09T11:05:29;22.70;1.00
2945;DHT22;1482;51.398;7.128;2022-09-09T11:08:17;22.70;1.00
2945;DHT22;1482;51.398;7.128;2022-09-09T11:16:28;22.70;1.00
2945;DHT22;1482;51.398;7.128;2022-09-09T11:19:03;22.60;1.00
2945;DHT22;1482;51.398;7.128;2022-09-09T11:21:34;22.70;1.00
2945;DHT22;1482;51.398;7.128;2022-09-09T11:24:10;22.70;1.00
2945;DHT22;1482;51.398;7.128;2022-09-09T11:26:45;22.60;1.00
2945;DHT22;1482;51.398;7.128;2022-09-09T11:29:17;22.70;1.00
2945;DHT22;1482;51.398;7.128;2022-09-09T11:34:37;22.50;1.00
2945;DHT22;1482;51.398;7.128;2022-09-09T11:37:31;22.30;1.00
2945;DHT22;1482;51.398;7.128;2022-09-09T11:40:24;22.20;1.00
2945;DHT22;1482;51.398;7.128;2022-09-09T11:43:15;22.20;1.00
2945;DHT22;1482;51.398;7.128;2022-09-09T11:45:42;22.00;1.00
2945;DHT22;1482;51.398;7.128;2022-09-09T11:51:02;21.60;1.00
2945;DHT22;1482;51.398;7.128;2022-09-09T11:53:28;21.30;1.00
2945;DHT22;1482;51.398;7.128;2022-09-09T11:56:11;21.10;1.00
2945;DHT22;1482;51.398;7.128;2022-09-09T11:58:42;21.20;1.00
2945;DHT22;1482;51.398;7.128;2022-09-09T12:01:16;21.00;1.00
2945;DHT22;1482;51.398;7.128;2022-09-09T12:04:17;20.80;1.00
2945;DHT22;1482;51.398;7.128;2022-09-09T12:06:45;20.60;1.00
2945;DHT22;1482;51.398;7.128;2022-09-09T12:09:39;20.40;1.00
2945;DHT22;1482;51.398;7.128;2022-09-09T12:14:58;20.40;1.00
2945;DHT22;1482;51.398;7.128;2022-09-09T12:17:27;20.40;1.00
2945;DHT22;1482;51.398;7.128;2022-09-09T12:20:16;20.50;1.00
2945;DHT22;1482;51.398;7.128;2022-09-09T12:31:10;20.90;1.00
2945;DHT22;1482;51.398;7.128;2022-09-09T12:33:43;20.90;1.00
2945;DHT22;1482;51.398;7.128;2022-09-09T12:36:17;20.90;1.00
2945;DHT22;1482;51.398;7.128;2022-09-09T12:38:45;20.90;1.00
2945;DHT22;1482;51.398;7.128;2022-09-09T12:41:25;21.00;1.00
2945;DHT22;1482;51.398;7.128;2022-09-09T12:44:04;21.00;1.00
2945;DHT22;1482;51.398;7.128;2022-09-09T12:46:40;20.80;1.00
2945;DHT22;1482;51.398;7.128;2022-09-09T12:54:47;20.20;1.00
2945;DHT22;1482;51.398;7.128;2022-09-09T12:57:13;20.30;1.00
2945;DHT22;1482;51.398;7.128;2022-09-09T12:59:42;20.60;1.00
2945;DHT22;1482;51.398;7.128;2022-09-09T13:04:44;21.30;1.00
2945;DHT22;1482;51.398;7.128;2022-09-09T13:07:13;21.50;1.00
2945;DHT22;1482;51.398;7.128;2022-09-09T13:09:39;21.50;1.00
2945;DHT22;1482;51.398;7.128;2022-09-09T13:12:19;21.50;1.00
2945;DHT22;1482;51.398;7.128;2022-09-09T13:14:49;21.30;1.00
2945;DHT22;1482;51.398;7.128;2022-09-09T13:17:26;21.40;1.00
2945;DHT22;1482;51.398;7.128;2022-09-09T13:19:55;21.60;1.00
2945;DHT22;1482;51.398;7.128;2022-09-09T13:22:34;21.60;1.00
2945;DHT22;1482;51.398;7.128;2022-09-09T13:27:34;21.50;1.00
2945;DHT22;1482;51.398;7.128;2022-09-09T13:32:59;21.20;1.00
2945;DHT22;1482;51.398;7.128;2022-09-09T13:35:26;21.00;1.00
2945;DHT22;1482;51.398;7.128;2022-09-09T13:37:51;20.80;1.00
2945;DHT22;1482;51.398;7.128;2022-09-09T13:40:19;20.40;1.00
2945;DHT22;1482;51.398;7.128;2022-09-09T13:42:46;20.00;1.00
2945;DHT22;1482;51.398;7.128;2022-09-09T13:45:19;19.30;1.00
2945;DHT22;1482;51.398;7.128;2022-09-09T13:47:47;19.10;1.00
2945;DHT22;1482;51.398;7.128;2022-09-09T13:52:58;18.70;83.60
2945;DHT22;1482;51.398;7.128;2022-09-09T13:55:26;18.70;99.90
2945;DHT22;1482;51.398;7.128;2022-09-09T14:00:22;19.10;99.90
2945;DHT22;1482;51.398;7.128;2022-09-09T14:02:49;19.20;75.70
2945;DHT22;1482;51.398;7.128;2022-09-09T14:05:15;19.40;34.80
2945;DHT22;1482;51.398;7.128;2022-09-09T14:07:42;19.60;27.20
2945;DHT22;1482;51.398;7.128;2022-09-09T14:10:08;19.70;1.00
2945;DHT22;1482;51.398;7.128;2022-09-09T14:12:34;20.00;1.00
2945;DHT22;1482;51.398;7.128;2022-09-09T14:15:02;20.20;1.00
2945;DHT22;1482;51.398;7.128;2022-09-09T14:17:28;20.50;1.00
2945;DHT22;1482;51.398;7.128;2022-09-09T14:19:56;20.80;1.00
2945;DHT22;1482;51.398;7.128;2022-09-09T14:22:23;20.70;1.00
2945;DHT22;1482;51.398;7.128;2022-09-09T14:24:49;20.80;1.00
2945;DHT22;1482;51.398;7.128;2022-09-09T14:27:14;20.50;1.00
2945;DHT22;1482;51.398;7.128;2022-09-09T14:29:41;20.50;1.00
2945;DHT22;1482;51.398;7.128;2022-09-09T14:32:06;20.70;1.00
2945;DHT22;1482;51.398;7.128;2022-09-09T14:34:32;20.40;1.00
2945;DHT22;1482;51.398;7.128;2022-09-09T14:36:58;20.40;1.00
2945;DHT22;1482;51.398;7.128;2022-09-09T14:39:24;20.40;1.00
2945;DHT22;1482;51.398;7.128;2022-09-09T14:41:49;20.30;1.00
2945;DHT22;1482;51.398;7.128;2022-09-09T14:44:15;20.00;1.00
2945;DHT22;1482;51.398;7.128;2022-09-09T14:46:41;19.80;1.00
2945;DHT22;1482;51.398;7.128;2022-09-09T14:49:08;19.90;1.00
2945;DHT22;1482;51.398;7.128;2022-09-09T14:51:33;20.00;1.00
2945;DHT22;1482;51.398;7.128;2022-09-09T14:53:59;20.20;1.00
2945;DHT22;1482;51.398;7.128;2022-09-09T14:56:26;20.20;1.00
2945;DHT22;1482;51.398;7.128;2022-09-09T14:58:54;20.50;1.00
2945;DHT22;1482;51.398;7.128;2022-09-09T15:01:20;20.60;1.00
2945;DHT22;1482;51.398;7.128;2022-09-09T15:03:56;20.50;1.00
2945;DHT22;1482;51.398;7.128;2022-09-09T15:06:23;20.30;1.00
2945;DHT22;1482;51.398;7.128;2022-09-09T15:08:51;20.30;1.00
2945;DHT22;1482;51.398;7.128;2022-09-09T15:11:17;20.10;1.00
2945;DHT22;1482;51.398;7.128;2022-09-09T15:13:43;19.70;1.00
2945;DHT22;1482;51.398;7.128;2022-09-09T15:16:15;19.50;1.00
2945;DHT22;1482;51.398;7.128;2022-09-09T15:18:41;19.30;1.00
2945;DHT22;1482;51.398;7.128;2022-09-09T15:21:12;19.10;1.00
2945;DHT22;1482;51.398;7.128;2022-09-09T15:23:38;18.70;1.00
2945;DHT22;1482;51.398;7.128;2022-09-09T15:26:04;18.50;1.00
2945;DHT22;1482;51.398;7.128;2022-09-09T15:28:32;18.20;1.00
2945;DHT22;1482;51.398;7.128;2022-09-09T15:31:06;17.90;1.00
2945;DHT22;1482;51.398;7.128;2022-09-09T15:33:32;17.70;1.00
2945;DHT22;1482;51.398;7.128;2022-09-09T15:35:58;17.50;1.00
2945;DHT22;1482;51.398;7.128;2022-09-09T15:38:24;17.30;1.00
2945;DHT22;1482;51.398;7.128;2022-09-09T15:40:54;17.10;1.00
2945;DHT22;1482;51.398;7.128;2022-09-09T15:43:20;17.00;1.00
2945;DHT22;1482;51.398;7.128;2022-09-09T15:45:46;17.00;1.00
2945;DHT22;1482;51.398;7.128;2022-09-09T15:48:14;16.90;1.00
2945;DHT22;1482;51.398;7.128;2022-09-09T15:50:40;16.80;1.00
2945;DHT22;1482;51.398;7.128;2022-09-09T15:53:05;16.70;10.30
2945;DHT22;1482;51.398;7.128;2022-09-09T15:55:31;16.70;29.00
2945;DHT22;1482;51.398;7.128;2022-09-09T15:57:57;16.70;74.60
2945;DHT22;1482;51.398;7.128;2022-09-09T16:00:23;16.70;52.80
2945;DHT22;1482;51.398;7.128;2022-09-09T16:02:49;16.70;28.70
2945;DHT22;1482;51.398;7.128;2022-09-09T16:05:15;16.80;23.50
2945;DHT22;1482;51.398;7.128;2022-09-09T16:07:41;16.80;48.00
2945;DHT22;1482;51.398;7.128;2022-09-09T16:10:08;16.60;99.90
2945;DHT22;1482;51.398;7.128;2022-09-09T16:12:34;16.70;99.90
2945;DHT22;1482;51.398;7.128;2022-09-09T16:14:59;16.80;99.90
2945;DHT22;1482;51.398;7.128;2022-09-09T16:17:25;16.70;99.90
2945;DHT22;1482;51.398;7.128;2022-09-09T16:19:51;16.70;99.90
2945;DHT22;1482;51.398;7.128;2022-09-09T16:22:16;16.80;99.90
2945;DHT22;1482;51.398;7.128;2022-09-09T16:24:43;17.00;99.90
2945;DHT22;1482;51.398;7.128;2022-09-09T16:27:10;17.10;99.90
2945;DHT22;1482;51.398;7.128;2022-09-09T16:29:36;17.10;99.90
2945;DHT22;1482;51.398;7.128;2022-09-09T16:32:02;17.10;83.00
2945;DHT22;1482;51.398;7.128;2022-09-09T16:34:27;17.00;69.30
2945;DHT22;1482;51.398;7.128;2022-09-09T16:36:53;16.80;99.90
2945;DHT22;1482;51.398;7.128;2022-09-09T16:39:20;16.60;99.90
2945;DHT22;1482;51.398;7.128;2022-09-09T16:41:47;16.70;99.90
2945;DHT22;1482;51.398;7.128;2022-09-09T16:44:15;16.70;99.90
2945;DHT22;1482;51.398;7.128;2022-09-09T16:46:44;16.80;99.90
2945;DHT22;1482;51.398;7.128;2022-09-09T16:49:12;16.80;1.00
2945;DHT22;1482;51.398;7.128;2022-09-09T16:51:41;17.00;99.90
2945;DHT22;1482;51.398;7.128;2022-09-09T16:54:08;17.00;99.90
2945;DHT22;1482;51.398;7.128;2022-09-09T16:56:36;17.10;99.90
2945;DHT22;1482;51.398;7.128;2022-09-09T16:59:05;17.20;99.90
2945;DHT22;1482;51.398;7.128;2022-09-09T17:01:33;17.20;99.90
2945;DHT22;1482;51.398;7.128;2022-09-09T17:04:02;17.30;99.90
2945;DHT22;1482;51.398;7.128;2022-09-09T17:06:29;17.20;99.90
2945;DHT22;1482;51.398;7.128;2022-09-09T17:08:56;17.10;99.90
2945;DHT22;1482;51.398;7.128;2022-09-09T17:11:22;17.10;99.90
2945;DHT22;1482;51.398;7.128;2022-09-09T17:13:49;17.00;99.90
2945;DHT22;1482;51.398;7.128;2022-09-09T17:16:16;17.00;99.90
2945;DHT22;1482;51.398;7.128;2022-09-09T17:18:42;16.90;99.90
2945;DHT22;1482;51.398;7.128;2022-09-09T17:21:11;16.80;99.90
2945;DHT22;1482;51.398;7.128;2022-09-09T17:23:37;16.70;1.00
2945;DHT22;1482;51.398;7.128;2022-09-09T17:26:04;16.80;1.00
2945;DHT22;1482;51.398;7.128;2022-09-09T17:28:31;16.90;1.00
2945;DHT22;1482;51.398;7.128;2022-09-09T17:31:00;16.90;1.00
2945;DHT22;1482;51.398;7.128;2022-09-09T17:33:30;16.90;1.00
2945;DHT22;1482;51.398;7.128;2022-09-09T17:36:07;16.90;1.00
2945;DHT22;1482;51.398;7.128;2022-09-09T17:38:33;16.80;1.00
2945;DHT22;1482;51.398;7.128;2022-09-09T17:41:26;16.80;1.00
2945;DHT22;1482;51.398;7.128;2022-09-09T17:43:53;16.70;57.40
2945;DHT22;1482;51.398;7.128;2022-09-09T17:46:23;16.60;99.90
2945;DHT22;1482;51.398;7.128;2022-09-09T17:48:51;16.60;99.90
2945;DHT22;1482;51.398;7.128;2022-09-09T17:51:20;16.60;99.90
2945;DHT22;1482;51.398;7.128;2022-09-09T17:53:50;16.60;99.90
2945;DHT22;1482;51.398;7.128;2022-09-09T17:56:18;16.60;99.90
2945;DHT22;1482;51.398;7.128;2022-09-09T17:58:46;16.60;99.90
2945;DHT22;1482;51.398;7.128;2022-09-09T18:01:18;16.70;99.90
2945;DHT22;1482;51.398;7.128;2022-09-09T18:03:44;16.70;99.90
2945;DHT22;1482;51.398;7.128;2022-09-09T18:06:14;16.60;99.90
2945;DHT22;1482;51.398;7.128;2022-09-09T18:08:54;16.60;99.90
2945;DHT22;1482;51.398;7.128;2022-09-09T18:11:21;16.50;1.00
2945;DHT22;1482;51.398;7.128;2022-09-09T18:14:05;16.40;1.00
2945;DHT22;1482;51.398;7.128;2022-09-09T18:16:33;16.40;7.90
2945;DHT22;1482;51.398;7.128;2022-09-09T18:19:01;16.40;1.00
2945;DHT22;1482;51.398;7.128;2022-09-09T18:21:29;16.40;1.00
2945;DHT22;1482;51.398;7.128;2022-09-09T18:23:58;16.50;1.00